createdAt,value
2017-12-05T00:00:40.566Z,90.60
2017-12-05T00:03:08.042Z,90.60
2017-12-05T00:05:35.587Z,90.60
2017-12-05T00:08:03.140Z,90.60
2017-12-05T00:10:31.366Z,90.60
2017-12-05T00:12:58.835Z,90.60
2017-12-05T00:15:26.323Z,90.60
2017-12-05T00:17:54.568Z,90.60
2017-12-05T00:20:22.075Z,90.60
2017-12-05T00:22:49.605Z,90.60
2017-12-05T00:25:17.878Z,90.50
2017-12-05T00:27:59.791Z,90.50
2017-12-05T00:30:30.967Z,90.50
2017-12-05T00:32:58.473Z,90.50
2017-12-05T00:35:26.013Z,90.50
2017-12-05T00:37:53.519Z,90.60
2017-12-05T00:40:21.039Z,90.60
2017-12-05T00:42:48.506Z,90.70
2017-12-05T00:45:16.051Z,90.90
2017-12-05T00:47:43.578Z,90.90
2017-12-05T00:50:11.092Z,91.00
2017-12-05T00:52:39.419Z,91.10
2017-12-05T00:55:06.896Z,91.10
2017-12-05T00:57:34.401Z,91.10
2017-12-05T01:00:01.957Z,91.10
2017-12-05T01:02:29.455Z,91.20
2017-12-05T01:04:56.941Z,91.20
2017-12-05T01:07:25.229Z,91.20
2017-12-05T01:09:52.736Z,91.20
2017-12-05T01:12:20.210Z,91.30
2017-12-05T01:14:47.759Z,91.30
2017-12-05T01:17:15.273Z,91.30
2017-12-05T01:19:43.595Z,91.30
2017-12-05T01:22:11.127Z,91.30
2017-12-05T01:24:38.664Z,91.20
2017-12-05T01:27:06.934Z,91.20
2017-12-05T01:29:34.424Z,91.20
2017-12-05T01:32:01.954Z,91.20
2017-12-05T01:34:30.251Z,91.10
2017-12-05T01:36:57.737Z,91.10
2017-12-05T01:39:25.210Z,91.10
2017-12-05T01:41:52.707Z,91.10
2017-12-05T01:44:20.962Z,91.10
2017-12-05T01:46:48.461Z,91.10
2017-12-05T01:49:15.971Z,91.10
2017-12-05T01:51:43.470Z,91.10
2017-12-05T01:54:11.773Z,91.10
2017-12-05T01:56:39.236Z,91.10
2017-12-05T01:59:06.781Z,91.10
2017-12-05T02:01:34.322Z,91.10
2017-12-05T02:04:02.593Z,91.10
2017-12-05T02:06:30.835Z,91.10
2017-12-05T02:08:58.654Z,91.10
2017-12-05T02:11:26.119Z,91.10
2017-12-05T02:13:53.629Z,91.10
2017-12-05T02:16:21.154Z,91.10
2017-12-05T02:18:48.694Z,91.10
2017-12-05T02:21:16.177Z,91.10
2017-12-05T02:23:43.637Z,91.10
2017-12-05T02:26:11.146Z,91.10
2017-12-05T02:28:39.431Z,91.10
2017-12-05T02:31:06.939Z,91.10
2017-12-05T02:33:34.442Z,91.10
2017-12-05T02:36:01.958Z,91.10
2017-12-05T02:38:29.450Z,91.10
2017-12-05T02:41:09.402Z,91.10
2017-12-05T02:43:36.936Z,91.10
2017-12-05T02:46:04.436Z,91.20
2017-12-05T02:48:31.947Z,91.10
2017-12-05T02:50:59.444Z,91.20
2017-12-05T02:53:27.722Z,91.20
2017-12-05T02:55:55.230Z,91.20
2017-12-05T02:58:22.781Z,91.20
2017-12-05T03:00:50.271Z,91.20
2017-12-05T03:03:17.790Z,91.10
2017-12-05T03:05:45.283Z,91.20
2017-12-05T03:08:12.778Z,91.10
2017-12-05T03:10:40.294Z,91.20
2017-12-05T03:13:07.789Z,91.20
2017-12-05T03:15:36.060Z,91.20
2017-12-05T03:18:03.552Z,91.20
2017-12-05T03:20:31.055Z,91.20
2017-12-05T03:22:58.611Z,91.20
2017-12-05T03:25:26.122Z,91.20
2017-12-05T03:27:53.598Z,91.20
2017-12-05T03:30:21.093Z,91.20
2017-12-05T03:32:49.385Z,91.10
2017-12-05T03:35:20.782Z,91.10
2017-12-05T03:37:48.271Z,91.40
2017-12-05T03:40:15.762Z,91.10
2017-12-05T03:42:43.283Z,91.10
2017-12-05T03:45:10.771Z,91.00
2017-12-05T03:47:38.296Z,91.00
2017-12-05T03:50:05.790Z,91.00
2017-12-05T03:52:33.515Z,90.90
2017-12-05T03:55:01.009Z,91.00
2017-12-05T03:57:28.491Z,91.00
2017-12-05T03:59:55.974Z,91.00
2017-12-05T04:02:23.465Z,91.00
2017-12-05T04:04:51.709Z,90.90
2017-12-05T04:07:19.275Z,90.90
2017-12-05T04:09:46.761Z,90.90
2017-12-05T04:12:14.298Z,90.90
2017-12-05T04:14:41.830Z,90.90
2017-12-05T04:17:09.305Z,90.90
2017-12-05T04:19:36.811Z,90.90
2017-12-05T04:22:04.351Z,90.80
2017-12-05T04:24:31.869Z,90.80
2017-12-05T04:26:59.361Z,90.80
2017-12-05T04:29:26.873Z,90.90
2017-12-05T04:31:54.410Z,90.90
2017-12-05T04:34:21.909Z,90.90
2017-12-05T04:36:49.421Z,90.90
2017-12-05T04:39:16.969Z,90.90
2017-12-05T04:41:45.295Z,90.90
2017-12-05T04:44:12.809Z,90.80
2017-12-05T04:46:40.333Z,90.80
2017-12-05T04:49:07.828Z,90.80
2017-12-05T04:51:36.104Z,90.70
2017-12-05T04:54:04.379Z,90.70
2017-12-05T04:56:32.634Z,90.70
2017-12-05T04:59:00.201Z,90.60
2017-12-05T05:01:34.413Z,90.70
2017-12-05T05:04:16.703Z,90.70
2017-12-05T05:06:44.201Z,90.70
2017-12-05T05:09:11.701Z,90.80
2017-12-05T05:11:39.219Z,90.80
2017-12-05T05:14:06.727Z,90.80
2017-12-05T05:16:34.218Z,90.90
2017-12-05T05:19:02.491Z,91.00
2017-12-05T05:21:30.764Z,91.00
2017-12-05T05:23:58.283Z,91.00
2017-12-05T05:26:25.786Z,91.00
2017-12-05T05:28:54.092Z,91.20
2017-12-05T05:31:21.612Z,91.10
2017-12-05T05:33:49.090Z,91.10
2017-12-05T05:36:17.390Z,91.30
2017-12-05T05:38:44.899Z,91.20
2017-12-05T05:41:12.462Z,91.30
2017-12-05T05:43:39.976Z,91.30
2017-12-05T05:46:07.500Z,91.30
2017-12-05T05:48:35.875Z,91.40
2017-12-05T05:51:04.183Z,91.40
2017-12-05T05:53:31.695Z,91.40
2017-12-05T05:55:59.263Z,91.40
2017-12-05T05:58:26.761Z,91.40
2017-12-05T06:00:54.290Z,91.40
2017-12-05T06:03:22.565Z,91.40
2017-12-05T06:05:50.850Z,91.50
2017-12-05T06:08:19.111Z,91.50
2017-12-05T06:10:47.413Z,91.60
2017-12-05T06:13:14.946Z,91.50
2017-12-05T06:15:42.483Z,91.60
2017-12-05T06:18:10.067Z,91.50
2017-12-05T06:20:38.366Z,91.60
2017-12-05T06:23:05.869Z,91.60
2017-12-05T06:25:33.337Z,91.60
2017-12-05T06:28:00.870Z,91.90
2017-12-05T06:30:28.400Z,91.60
2017-12-05T06:32:55.917Z,91.60
2017-12-05T06:35:23.413Z,91.60
2017-12-05T06:37:50.940Z,91.60
2017-12-05T06:40:18.437Z,91.60
2017-12-05T06:42:45.944Z,91.60
2017-12-05T06:45:13.439Z,91.60
2017-12-05T06:47:41.723Z,91.60
2017-12-05T06:50:09.221Z,91.60
2017-12-05T06:52:36.788Z,91.60
2017-12-05T06:55:04.320Z,91.80
2017-12-05T06:57:31.865Z,91.60
2017-12-05T06:59:59.354Z,91.60
2017-12-05T07:02:26.853Z,91.50
2017-12-05T07:04:54.368Z,91.50
2017-12-05T07:07:22.263Z,91.50
2017-12-05T07:09:49.810Z,91.50
2017-12-05T07:12:17.293Z,91.50
2017-12-05T07:14:44.813Z,91.40
2017-12-05T07:17:12.333Z,91.40
2017-12-05T07:19:39.829Z,91.30
2017-12-05T07:22:07.335Z,91.30
2017-12-05T07:24:35.665Z,91.20
2017-12-05T07:27:03.188Z,91.20
2017-12-05T07:29:31.458Z,91.10
2017-12-05T07:31:59.784Z,91.10
2017-12-05T07:34:27.302Z,91.00
2017-12-05T07:36:54.806Z,91.00
2017-12-05T07:39:22.346Z,91.00
2017-12-05T07:41:49.850Z,91.00
2017-12-05T07:44:17.343Z,91.00
2017-12-05T07:46:44.821Z,90.90
2017-12-05T07:49:12.324Z,90.90
2017-12-05T07:51:39.826Z,90.90
2017-12-05T07:54:07.301Z,91.00
2017-12-05T07:56:34.846Z,90.90
2017-12-05T07:59:02.363Z,90.80
2017-12-05T08:01:30.671Z,90.90
2017-12-05T08:03:58.242Z,90.90
2017-12-05T08:06:25.781Z,90.90
2017-12-05T08:08:53.274Z,90.90
2017-12-05T08:11:20.775Z,90.80
2017-12-05T08:13:48.334Z,90.80
2017-12-05T08:16:15.816Z,90.80
2017-12-05T08:18:43.322Z,90.80
2017-12-05T08:21:10.818Z,90.80
2017-12-05T08:23:39.552Z,90.70
2017-12-05T08:26:07.033Z,90.70
2017-12-05T08:28:34.523Z,90.70
2017-12-05T08:31:09.674Z,90.70
2017-12-05T08:33:37.156Z,90.70
2017-12-05T08:36:04.633Z,90.60
2017-12-05T08:38:32.107Z,90.60
2017-12-05T08:40:59.581Z,90.60
2017-12-05T08:43:27.129Z,90.50
2017-12-05T10:14:59.157Z,87.60
2017-12-05T10:17:26.679Z,87.50
2017-12-05T10:19:54.949Z,87.30
2017-12-05T10:22:23.210Z,87.30
2017-12-05T10:24:50.718Z,87.30
2017-12-05T10:27:18.234Z,87.10
2017-12-05T10:29:46.547Z,87.00
2017-12-05T10:32:14.067Z,86.90
2017-12-05T10:34:41.554Z,86.70
2017-12-05T10:37:09.128Z,86.70
2017-12-05T10:39:36.652Z,86.80
2017-12-05T10:42:04.933Z,86.00
2017-12-05T10:44:32.456Z,85.80
2017-12-05T10:46:59.991Z,85.60
2017-12-05T10:49:27.527Z,85.30
2017-12-05T10:51:55.143Z,85.40
2017-12-05T10:54:22.618Z,85.10
2017-12-05T10:56:50.140Z,84.70
2017-12-05T10:59:17.642Z,85.10
2017-12-05T11:01:45.959Z,84.00
2017-12-05T11:04:13.470Z,83.90
2017-12-05T11:06:41.735Z,83.30
2017-12-05T11:09:09.799Z,83.30
2017-12-05T11:11:37.371Z,83.20
2017-12-05T11:14:04.948Z,83.00
2017-12-05T11:16:33.253Z,82.40
2017-12-05T11:19:00.738Z,82.40
2017-12-05T11:21:28.252Z,82.50
2017-12-05T11:23:55.757Z,82.30
2017-12-05T11:26:23.315Z,81.90
2017-12-05T11:28:50.835Z,82.00
2017-12-05T11:31:18.364Z,82.00
2017-12-05T11:33:45.867Z,82.00
2017-12-05T11:36:13.384Z,82.20
2017-12-05T11:38:47.395Z,82.00
2017-12-05T11:41:28.408Z,82.00
2017-12-05T11:43:55.885Z,81.60
2017-12-05T11:46:26.734Z,81.30
2017-12-05T16:15:41.167Z,85.30
2017-12-05T16:18:08.736Z,85.40
2017-12-05T16:20:36.259Z,85.30
2017-12-05T16:23:04.557Z,85.60
2017-12-05T16:25:32.064Z,85.70
2017-12-05T16:28:00.225Z,85.80
2017-12-05T16:30:27.738Z,86.00
2017-12-05T16:32:55.836Z,86.30
2017-12-05T16:35:23.409Z,86.60
2017-12-05T16:37:56.743Z,86.80
2017-12-05T16:40:38.245Z,87.40
2017-12-05T16:43:05.771Z,87.30
2017-12-05T16:45:33.337Z,87.40
2017-12-05T16:48:00.888Z,87.40
2017-12-05T16:50:28.423Z,87.30
2017-12-05T16:52:55.925Z,87.20
2017-12-05T16:55:24.178Z,86.90
2017-12-05T16:57:51.687Z,86.90
2017-12-05T17:00:19.231Z,86.80
2017-12-05T17:02:47.505Z,86.90
2017-12-05T17:05:15.806Z,86.90
2017-12-05T17:07:43.300Z,86.70
2017-12-05T17:10:10.799Z,86.90
2017-12-05T17:12:39.118Z,87.00
2017-12-05T17:15:06.607Z,86.90
2017-12-05T17:17:34.115Z,86.80
2017-12-05T17:20:02.286Z,86.80
2017-12-05T17:22:29.769Z,86.90
2017-12-05T17:24:57.295Z,86.90
2017-12-05T17:27:24.840Z,86.90
2017-12-05T17:29:53.117Z,86.70
2017-12-05T17:32:20.634Z,86.70
2017-12-05T17:34:48.151Z,86.50
2017-12-05T17:37:15.687Z,86.50
2017-12-05T17:39:43.275Z,86.10
2017-12-05T17:42:10.786Z,85.60
2017-12-05T17:44:38.288Z,85.30
2017-12-05T17:47:05.828Z,85.10
2017-12-05T17:49:33.336Z,84.80
2017-12-05T17:52:00.879Z,84.30
2017-12-05T17:54:28.363Z,84.20
2017-12-05T17:56:55.846Z,83.70
2017-12-05T17:59:23.336Z,83.30
2017-12-05T18:01:50.932Z,83.40
2017-12-05T18:04:18.411Z,83.40
2017-12-05T18:06:45.957Z,83.10
2017-12-05T18:09:13.497Z,82.70
2017-12-05T18:11:40.960Z,82.80
2017-12-05T18:14:08.523Z,82.70
2017-12-05T18:16:36.065Z,82.40
2017-12-05T18:19:03.586Z,82.30
2017-12-05T18:21:31.863Z,82.50
2017-12-05T18:24:00.174Z,82.50
2017-12-05T18:26:27.647Z,82.50
2017-12-05T18:28:55.132Z,82.40
2017-12-05T18:31:22.644Z,81.90
2017-12-05T18:33:50.252Z,81.40
2017-12-05T18:36:25.199Z,81.00
2017-12-05T18:38:55.822Z,80.80
2017-12-05T18:41:23.417Z,81.00
2017-12-05T18:43:51.042Z,81.20
2017-12-05T18:46:19.260Z,81.00
2017-12-05T18:48:46.912Z,81.30
2017-12-05T18:51:14.575Z,81.30
2017-12-05T18:53:42.246Z,81.60
2017-12-05T18:56:09.978Z,81.90
2017-12-05T18:58:37.678Z,82.20
2017-12-05T19:01:05.380Z,82.40
2017-12-05T19:03:33.829Z,82.70
2017-12-05T19:06:01.530Z,82.60
2017-12-05T19:08:29.175Z,82.80
2017-12-05T19:10:56.817Z,82.90
2017-12-05T19:13:24.465Z,82.90
2017-12-05T19:15:52.132Z,82.80
2017-12-05T19:18:20.288Z,82.90
2017-12-05T19:20:47.921Z,82.80
2017-12-05T19:23:15.551Z,82.50
2017-12-05T19:25:43.173Z,82.50
2017-12-05T19:28:10.787Z,82.00
2017-12-05T19:30:38.452Z,82.00
2017-12-05T19:33:06.025Z,81.80
2017-12-05T19:35:33.656Z,81.70
2017-12-05T19:38:01.276Z,81.80
2017-12-05T19:40:28.928Z,82.10
2017-12-05T19:42:56.611Z,81.20
2017-12-05T19:45:24.295Z,81.10
2017-12-05T19:47:52.079Z,81.30
2017-12-05T19:50:20.461Z,81.30
2017-12-05T19:52:48.149Z,81.20
2017-12-05T19:55:15.809Z,81.30
2017-12-05T19:57:44.249Z,81.20
2017-12-05T20:00:11.910Z,81.20
2017-12-05T20:02:39.777Z,81.10
2017-12-05T20:05:07.352Z,81.10
2017-12-05T20:07:34.899Z,81.00
2017-12-05T20:10:02.518Z,81.00
2017-12-05T20:12:30.122Z,81.20
2017-12-05T20:14:57.755Z,81.20
2017-12-05T20:17:25.276Z,81.20
2017-12-05T20:19:52.826Z,81.50
2017-12-05T20:22:20.335Z,81.50
2017-12-05T20:24:47.887Z,81.60
2017-12-05T20:27:15.410Z,81.60
2017-12-05T20:29:42.947Z,81.70
2017-12-05T20:32:10.452Z,81.80
2017-12-05T20:34:38.750Z,81.80
2017-12-05T20:37:06.359Z,81.70
2017-12-05T20:39:34.662Z,82.00
2017-12-05T20:42:02.956Z,82.00
2017-12-05T20:44:31.215Z,82.00
2017-12-05T20:46:59.392Z,82.10
2017-12-05T20:49:26.906Z,82.20
2017-12-05T20:51:54.397Z,82.30
2017-12-05T20:54:21.890Z,82.50
2017-12-05T20:56:49.431Z,82.10
2017-12-05T20:59:17.029Z,82.20
2017-12-05T21:01:44.559Z,82.40
2017-12-05T21:04:12.081Z,82.30
2017-12-05T21:06:39.579Z,82.30
2017-12-05T21:09:07.143Z,82.10
2017-12-05T21:11:34.690Z,82.30
2017-12-05T21:14:02.187Z,82.40
2017-12-05T21:16:30.358Z,82.30
2017-12-05T21:18:59.760Z,82.40
2017-12-05T21:21:27.835Z,82.50
2017-12-05T21:23:55.352Z,82.50
2017-12-05T21:26:24.449Z,82.70
2017-12-05T21:28:52.686Z,83.50
2017-12-05T21:31:20.715Z,82.70
2017-12-05T21:33:48.267Z,82.70
2017-12-05T21:36:15.799Z,82.60
2017-12-05T21:38:43.285Z,82.70
2017-12-05T21:41:10.812Z,82.80
2017-12-05T21:43:39.098Z,82.80
2017-12-05T21:46:07.414Z,82.60
2017-12-05T21:48:34.884Z,82.60
2017-12-05T21:51:02.425Z,82.60
2017-12-05T21:53:30.627Z,82.60
2017-12-05T21:55:58.267Z,82.60
2017-12-05T21:58:25.760Z,82.80
2017-12-05T22:00:53.340Z,82.60
2017-12-05T22:03:20.836Z,82.40
2017-12-05T22:05:48.373Z,82.60
2017-12-05T22:08:16.648Z,82.60
2017-12-05T22:10:44.972Z,82.50
2017-12-05T22:13:12.446Z,82.50
2017-12-05T22:15:40.654Z,82.50
2017-12-05T22:18:09.440Z,82.50
2017-12-05T22:20:37.711Z,82.70
2017-12-05T22:23:05.999Z,82.80
2017-12-05T22:25:34.274Z,82.90
2017-12-05T22:28:02.565Z,82.90
2017-12-05T22:30:33.704Z,82.80
2017-12-05T22:33:21.672Z,83.20
2017-12-05T22:35:49.263Z,83.10
2017-12-05T23:14:04.889Z,81.80
2017-12-05T23:16:32.394Z,81.80
2017-12-05T23:18:59.854Z,81.90
2017-12-05T23:21:27.394Z,82.00
2017-12-05T23:23:55.656Z,81.80
2017-12-05T23:26:23.118Z,81.80
2017-12-05T23:28:51.368Z,81.40
2017-12-05T23:31:18.958Z,81.40
2017-12-05T23:33:47.227Z,81.20
2017-12-05T23:36:15.497Z,80.80
2017-12-05T23:38:42.973Z,80.80
2017-12-05T23:41:11.239Z,80.30
2017-12-05T23:43:38.713Z,80.20
2017-12-05T23:46:06.224Z,80.30
2017-12-05T23:48:33.775Z,80.30
2017-12-05T23:51:01.294Z,80.50
2017-12-05T23:53:28.855Z,80.60
2017-12-05T23:55:56.333Z,80.80
2017-12-05T23:58:23.849Z,80.70
